Terminal Aerodrome Forecast
Issued by NWS

Home | Current Version | Previous Version | Text Only | Print | Product List | Glossary On
Versions: 1 2 3 4 5 6 7 8 9 10 11 12 13 14 15 16 17 18 19 20 21 22 23 24 25 26 27 28 29 30 31 32 33 34 35 36 37 38 39 40 41 42 43 44 45 46 47 48 49 50
046
FTUS45 KBOU 292013 AAA
TAFBJC
TAF AMD
KBJC 292013Z 2920/3018 02005KT 3/4SM -SN BR OVC005
      TEMPO 2920/2922 1/4SM SN FG OVC002
     FM292200 05007KT 1SM -SN BR BKN005 OVC009
     FM292300 02006KT 1SM -SN BR BKN004 OVC010
     FM300200 01007KT 3SM -SN BR BKN012 OVC020
     FM300500 35008KT 6SM BR SCT014 OVC025
      TEMPO 3005/3009 3SM -SN BR BKN006=

USA.gov is the U.S. government's official web portal to all federal, state and local government web resources and services.